createdAt,value
2022-10-30T00:02:35.419Z,26.02
2022-10-30T00:05:57.680Z,21.48
2022-10-30T00:09:19.848Z,23.40
2022-10-30T00:12:42.721Z,25.35
2022-10-30T00:16:07.833Z,23.00
2022-10-30T00:22:52.097Z,20.77
2022-10-30T00:26:15.142Z,19.90
2022-10-30T00:29:37.700Z,17.35
2022-10-30T00:33:00.069Z,16.85
2022-10-30T00:36:23.446Z,19.20
2022-10-30T00:39:45.568Z,18.75
2022-10-30T00:43:28.388Z,15.38
2022-10-30T00:46:50.594Z,16.40
2022-10-30T00:50:20.855Z,14.98
2022-10-30T00:53:43.539Z,15.15
2022-10-30T00:57:07.825Z,12.75
2022-10-30T01:00:30.778Z,14.50
2022-10-30T01:03:58.321Z,11.45
2022-10-30T01:07:21.154Z,9.82
2022-10-30T01:10:44.020Z,16.15
2022-10-30T01:14:08.618Z,11.25
2022-10-30T01:17:36.950Z,10.30
2022-10-30T01:21:08.592Z,8.25
2022-10-30T01:24:30.702Z,9.15
2022-10-30T01:28:07.772Z,12.00
2022-10-30T01:31:41.120Z,11.88
2022-10-30T01:35:17.983Z,15.38
2022-10-30T01:38:52.728Z,9.50
2022-10-30T01:42:47.564Z,11.33
2022-10-30T01:46:35.476Z,8.15
2022-10-30T01:50:42.757Z,7.45
2022-10-30T01:54:20.565Z,8.80
2022-10-30T01:57:55.729Z,9.65
2022-10-30T02:01:18.910Z,7.35
2022-10-30T02:04:43.019Z,7.07
2022-10-30T02:08:06.698Z,7.60
2022-10-30T02:11:33.935Z,8.50
2022-10-30T02:15:00.085Z,8.73
2022-10-30T02:18:22.328Z,7.35
2022-10-30T02:21:44.688Z,5.57
2022-10-30T02:25:07.941Z,4.53
2022-10-30T02:28:30.241Z,5.68
2022-10-30T02:31:52.450Z,7.88
2022-10-30T02:35:14.680Z,3.80
2022-10-30T02:38:36.816Z,3.75
2022-10-30T02:42:01.873Z,5.90
2022-10-30T02:48:46.192Z,5.35
2022-10-30T02:52:09.477Z,5.43
2022-10-30T02:55:31.646Z,4.07
2022-10-30T02:58:55.748Z,6.05
2022-10-30T03:02:18.384Z,5.35
2022-10-30T03:05:40.613Z,5.82
2022-10-30T03:09:02.819Z,4.10
2022-10-30T03:12:24.977Z,3.78
2022-10-30T03:15:47.707Z,5.30
2022-10-30T03:19:10.112Z,4.70
2022-10-30T03:22:32.477Z,3.42
2022-10-30T03:25:57.220Z,3.10
2022-10-30T03:29:20.265Z,3.20
2022-10-30T03:32:42.461Z,4.32
2022-10-30T03:36:09.381Z,4.35
2022-10-30T03:39:31.553Z,4.32
2022-10-30T03:42:53.731Z,6.03
2022-10-30T03:46:15.941Z,4.93
2022-10-30T03:49:38.736Z,2.47
2022-10-30T03:53:05.420Z,3.03
2022-10-30T03:56:27.692Z,4.00
2022-10-30T03:59:54.087Z,4.82
2022-10-30T04:03:34.979Z,4.30
2022-10-30T04:06:57.178Z,5.38
2022-10-30T04:10:22.854Z,2.08
2022-10-30T04:13:46.866Z,2.10
2022-10-30T04:20:36.273Z,4.03
2022-10-30T04:23:58.497Z,2.35
2022-10-30T04:27:23.801Z,3.17
2022-10-30T04:30:47.062Z,2.42
2022-10-30T04:34:12.288Z,2.38
2022-10-30T04:37:34.621Z,3.13
2022-10-30T04:40:56.757Z,2.45
2022-10-30T04:44:27.456Z,1.48
2022-10-30T04:47:50.783Z,2.22
2022-10-30T04:51:13.959Z,1.63
2022-10-30T04:54:36.102Z,1.17
2022-10-30T04:58:00.026Z,4.15
2022-10-30T05:01:24.733Z,2.05
2022-10-30T05:04:47.073Z,3.33
2022-10-30T05:08:09.356Z,1.42
2022-10-30T05:11:32.042Z,2.90
2022-10-30T05:14:54.376Z,7.55
2022-10-30T05:18:16.842Z,1.63
2022-10-30T05:21:39.577Z,2.70
2022-10-30T05:25:01.838Z,1.85
2022-10-30T05:28:24.176Z,2.20
2022-10-30T05:31:51.695Z,1.55
2022-10-30T05:35:28.948Z,1.52
2022-10-30T05:38:51.470Z,5.15
2022-10-30T05:42:29.887Z,3.55
2022-10-30T05:45:55.128Z,1.83
2022-10-30T05:49:18.047Z,1.30
2022-10-30T05:52:40.529Z,2.50
2022-10-30T05:56:04.373Z,1.38
2022-10-30T05:59:29.580Z,1.00
2022-10-30T06:02:51.955Z,1.17
2022-10-30T06:06:14.186Z,2.33
2022-10-30T06:09:36.338Z,83.68
2022-10-30T06:13:17.299Z,106.00
2022-10-30T06:16:49.346Z,130.55
2022-10-30T06:20:11.643Z,149.27
2022-10-30T06:23:56.790Z,98.22
2022-10-30T06:27:31.807Z,134.15
2022-10-30T06:30:55.087Z,143.50
2022-10-30T06:34:17.365Z,132.48
2022-10-30T06:37:48.553Z,110.28
2022-10-30T06:41:13.437Z,88.72
2022-10-30T06:44:54.241Z,93.78
2022-10-30T06:48:18.737Z,100.82
2022-10-30T06:51:46.250Z,103.25
2022-10-30T06:55:09.508Z,90.22
2022-10-30T06:58:54.856Z,68.22
2022-10-30T07:03:02.072Z,74.70
2022-10-30T07:06:25.377Z,72.88
2022-10-30T07:09:48.039Z,61.55
2022-10-30T07:13:15.276Z,55.30
2022-10-30T07:16:49.264Z,75.20
2022-10-30T07:20:11.981Z,65.45
2022-10-30T07:23:36.516Z,70.68
2022-10-30T07:27:18.956Z,63.37
2022-10-30T07:31:00.796Z,66.90
2022-10-30T07:34:43.176Z,64.07
2022-10-30T07:38:17.736Z,61.55
2022-10-30T07:41:50.611Z,55.92
2022-10-30T07:45:35.750Z,56.25
2022-10-30T07:49:27.272Z,52.67
2022-10-30T07:52:54.093Z,45.15
2022-10-30T07:56:20.407Z,47.85
2022-10-30T08:03:38.799Z,39.67
2022-10-30T08:07:07.051Z,38.70
2022-10-30T08:10:29.493Z,32.95
2022-10-30T08:13:52.407Z,24.35
2022-10-30T08:17:14.748Z,26.58
2022-10-30T08:20:38.752Z,24.23
2022-10-30T08:24:01.043Z,21.95
2022-10-30T08:27:26.009Z,21.38
2022-10-30T08:30:48.396Z,22.88
2022-10-30T08:34:14.147Z,17.23
2022-10-30T08:37:41.897Z,18.50
2022-10-30T08:41:05.220Z,15.95
2022-10-30T08:44:31.384Z,17.35
2022-10-30T08:48:15.395Z,18.60
2022-10-30T08:51:39.471Z,16.30
2022-10-30T08:55:03.998Z,12.13
2022-10-30T08:58:27.496Z,11.68
2022-10-30T09:01:51.046Z,12.15
2022-10-30T09:05:33.352Z,11.13
2022-10-30T09:09:24.659Z,10.88
2022-10-30T09:12:56.023Z,12.68
2022-10-30T09:16:18.881Z,11.32
2022-10-30T09:19:41.668Z,15.88
2022-10-30T09:23:05.268Z,13.75
2022-10-30T09:26:27.556Z,13.18
2022-10-30T09:30:18.913Z,9.90
2022-10-30T09:33:45.315Z,9.35
2022-10-30T09:37:27.619Z,9.57
2022-10-30T09:41:27.242Z,8.90
2022-10-30T09:45:29.085Z,10.02
2022-10-30T09:52:40.619Z,11.48
2022-10-30T09:59:37.268Z,6.57
2022-10-30T10:03:33.325Z,6.90
2022-10-30T10:07:35.509Z,10.13
2022-10-30T10:11:26.030Z,7.55
2022-10-30T10:14:48.922Z,15.25
2022-10-30T10:18:20.448Z,6.93
2022-10-30T10:21:57.955Z,5.95
2022-10-30T10:25:21.087Z,4.90
2022-10-30T10:28:52.927Z,3.58
2022-10-30T10:32:42.413Z,4.63
2022-10-30T10:36:20.909Z,3.50
2022-10-30T10:39:46.064Z,5.82
2022-10-30T10:46:49.365Z,4.25
2022-10-30T10:50:29.491Z,2.67
2022-10-30T10:54:08.971Z,3.50
2022-10-30T10:57:37.772Z,4.05
2022-10-30T11:01:00.368Z,2.70
2022-10-30T11:04:36.697Z,1.52
2022-10-30T11:08:13.135Z,1.42
2022-10-30T11:11:35.302Z,1.20
2022-10-30T11:15:22.922Z,2.78
2022-10-30T11:18:47.768Z,1.42
2022-10-30T11:22:25.724Z,2.20
2022-10-30T11:25:47.924Z,3.72
2022-10-30T11:29:18.586Z,2.00
2022-10-30T11:32:40.840Z,3.83
2022-10-30T11:36:14.588Z,2.97
2022-10-30T11:39:38.065Z,2.65
2022-10-30T11:43:04.006Z,5.20
2022-10-30T11:46:26.349Z,7.38
2022-10-30T11:49:54.035Z,11.27
2022-10-30T11:53:31.064Z,12.88
2022-10-30T11:56:54.256Z,8.40
2022-10-30T12:00:22.781Z,11.18
2022-10-30T12:03:44.974Z,8.65
2022-10-30T12:07:22.875Z,7.38
2022-10-30T12:10:58.624Z,8.18
2022-10-30T12:14:23.280Z,5.88
2022-10-30T12:17:53.328Z,5.35
2022-10-30T12:21:19.283Z,3.40
2022-10-30T12:24:44.232Z,3.40
2022-10-30T12:28:07.834Z,4.13
2022-10-30T12:31:41.308Z,4.13
2022-10-30T12:35:15.095Z,2.40
2022-10-30T12:38:45.332Z,2.60
2022-10-30T12:42:13.440Z,2.58
2022-10-30T12:45:47.742Z,2.40
2022-10-30T12:49:40.310Z,3.75
2022-10-30T12:53:05.983Z,4.88
2022-10-30T12:56:37.944Z,4.35
2022-10-30T13:00:03.482Z,3.58
2022-10-30T13:03:37.295Z,3.83
2022-10-30T13:07:33.600Z,2.42
2022-10-30T13:11:11.703Z,5.00
2022-10-30T13:15:06.071Z,2.13
2022-10-30T13:18:33.013Z,0.98
2022-10-30T13:22:21.126Z,2.70
2022-10-30T13:25:49.314Z,1.58
2022-10-30T13:29:33.831Z,4.57
2022-10-30T13:33:13.658Z,3.63
2022-10-30T13:36:42.437Z,2.75
2022-10-30T13:40:34.993Z,5.25
2022-10-30T13:44:24.465Z,2.10
2022-10-30T13:47:57.048Z,3.08
2022-10-30T13:51:42.790Z,12.75
2022-10-30T13:55:24.337Z,3.30
2022-10-30T13:58:49.473Z,8.88
2022-10-30T14:05:47.487Z,6.70
2022-10-30T14:09:29.924Z,4.55
2022-10-30T14:12:54.858Z,4.00
2022-10-30T14:17:03.487Z,2.10
2022-10-30T14:20:27.470Z,1.73
2022-10-30T14:24:02.807Z,5.28
2022-10-30T14:31:06.747Z,2.67
2022-10-30T14:34:41.706Z,2.80
2022-10-30T14:38:06.860Z,3.88
2022-10-30T14:45:25.061Z,1.98
2022-10-30T14:48:59.349Z,2.20
2022-10-30T14:52:53.004Z,2.83
2022-10-30T14:59:42.261Z,4.57
2022-10-30T15:03:10.327Z,4.65
2022-10-30T15:06:57.131Z,4.47
2022-10-30T15:10:31.166Z,3.58
2022-10-30T15:13:57.406Z,12.30
2022-10-30T15:17:40.954Z,5.07
2022-10-30T15:21:07.447Z,5.28
2022-10-30T15:24:32.501Z,6.97
2022-10-30T15:27:57.500Z,3.10
2022-10-30T15:31:27.903Z,1.90
2022-10-30T15:35:02.976Z,3.65
2022-10-30T15:38:25.699Z,0.95
2022-10-30T15:41:59.840Z,3.95
2022-10-30T15:45:34.167Z,2.63
2022-10-30T15:48:56.721Z,5.70
2022-10-30T15:52:23.158Z,1.67
2022-10-30T15:55:45.525Z,3.45
2022-10-30T15:59:17.625Z,3.38
2022-10-30T16:02:40.737Z,1.80
2022-10-30T16:06:25.408Z,2.97
2022-10-30T16:09:59.534Z,2.47
2022-10-30T16:13:30.471Z,3.53
2022-10-30T16:16:53.153Z,1.45
2022-10-30T16:20:17.267Z,3.58
2022-10-30T16:23:46.399Z,2.42
2022-10-30T16:27:16.482Z,2.72
2022-10-30T16:30:38.776Z,6.40
2022-10-30T16:34:03.104Z,3.47
2022-10-30T16:37:38.424Z,2.10
2022-10-30T16:44:27.838Z,2.72
2022-10-30T16:47:58.356Z,6.85
2022-10-30T16:51:21.528Z,7.28
2022-10-30T16:54:59.588Z,6.68
2022-10-30T16:58:26.360Z,4.03
2022-10-30T17:02:00.781Z,4.20
2022-10-30T17:05:34.937Z,6.25
2022-10-30T17:08:59.841Z,6.30
2022-10-30T17:12:24.841Z,3.45
2022-10-30T17:15:47.559Z,11.48
2022-10-30T17:19:31.356Z,4.13
2022-10-30T17:23:16.674Z,5.63
2022-10-30T17:26:39.220Z,3.30
2022-10-30T17:30:01.773Z,27.10
2022-10-30T17:33:37.273Z,37.20
2022-10-30T17:36:59.800Z,159.50
2022-10-30T17:40:22.032Z,234.20
2022-10-30T17:43:55.882Z,192.45
2022-10-30T17:47:19.700Z,240.95
2022-10-30T17:50:42.431Z,189.18
2022-10-30T17:54:09.947Z,174.82
2022-10-30T17:57:32.182Z,175.60
2022-10-30T18:00:54.385Z,159.55
2022-10-30T18:04:20.618Z,149.45
2022-10-30T18:07:43.965Z,176.18
2022-10-30T18:11:06.163Z,191.75
2022-10-30T18:14:28.304Z,156.73
2022-10-30T18:17:50.591Z,140.30
2022-10-30T18:21:18.637Z,134.15
2022-10-30T18:24:41.405Z,138.73
2022-10-30T18:28:03.878Z,123.30
2022-10-30T18:31:26.083Z,134.75
2022-10-30T18:34:48.783Z,125.75
2022-10-30T18:38:12.459Z,96.85
2022-10-30T18:41:46.523Z,53.08
2022-10-30T18:45:24.380Z,93.20
2022-10-30T18:48:46.705Z,95.22
2022-10-30T18:52:09.276Z,101.15
2022-10-30T18:55:39.806Z,95.80
2022-10-30T18:59:02.759Z,88.65
2022-10-30T19:02:25.308Z,84.85
2022-10-30T19:05:49.768Z,82.72
2022-10-30T19:09:11.891Z,70.47
2022-10-30T19:12:38.435Z,75.53
2022-10-30T19:16:01.150Z,77.80
2022-10-30T19:19:23.403Z,61.47
2022-10-30T19:22:45.572Z,61.25
2022-10-30T19:26:07.894Z,52.05
2022-10-30T19:29:30.107Z,53.72
2022-10-30T19:32:52.469Z,55.00
2022-10-30T19:36:44.261Z,48.85
2022-10-30T19:40:29.403Z,49.60
2022-10-30T19:43:51.854Z,42.35
2022-10-30T19:47:13.995Z,43.85
2022-10-30T19:50:38.372Z,42.20
2022-10-30T19:54:00.489Z,40.05
2022-10-30T19:57:22.708Z,31.65
2022-10-30T20:00:46.704Z,39.88
2022-10-30T20:04:08.931Z,29.98
2022-10-30T20:07:31.123Z,28.70
2022-10-30T20:10:55.915Z,27.85
2022-10-30T20:14:18.030Z,34.25
2022-10-30T20:17:40.235Z,30.60
2022-10-30T20:21:05.348Z,24.20
2022-10-30T20:31:18.486Z,19.90
2022-10-30T20:34:40.777Z,17.90
2022-10-30T20:38:03.594Z,21.08
2022-10-30T20:41:29.026Z,18.25
2022-10-30T20:44:51.546Z,16.52
2022-10-30T20:48:13.959Z,19.70
2022-10-30T20:51:36.105Z,18.90
2022-10-30T20:54:58.318Z,13.65
2022-10-30T20:58:21.028Z,14.50
2022-10-30T21:01:43.341Z,15.40
2022-10-30T21:05:11.815Z,11.98
2022-10-30T21:08:39.616Z,16.70
2022-10-30T21:12:01.823Z,11.88
2022-10-30T21:15:24.123Z,12.18
2022-10-30T21:18:54.647Z,10.15
2022-10-30T21:22:16.791Z,11.93
2022-10-30T21:25:38.983Z,7.80
2022-10-30T21:29:01.621Z,9.20
2022-10-30T21:32:23.849Z,6.72
2022-10-30T21:35:45.989Z,6.45
2022-10-30T21:39:08.418Z,8.55
2022-10-30T21:42:30.882Z,7.00
2022-10-30T21:45:53.016Z,9.30
2022-10-30T21:49:16.376Z,8.25
2022-10-30T21:52:38.577Z,9.15
2022-10-30T21:56:11.930Z,4.93
2022-10-30T21:59:34.833Z,5.03
2022-10-30T22:02:57.470Z,6.95
2022-10-30T22:06:21.876Z,5.82
2022-10-30T22:09:44.035Z,5.72
2022-10-30T22:13:06.206Z,7.40
2022-10-30T22:16:30.180Z,6.88
2022-10-30T22:19:53.533Z,6.07
2022-10-30T22:23:15.783Z,5.55
2022-10-30T22:26:37.917Z,6.97
2022-10-30T22:30:00.103Z,4.43
2022-10-30T22:33:22.268Z,11.32
2022-10-30T22:36:44.473Z,5.78
2022-10-30T22:40:06.988Z,4.97
2022-10-30T22:43:29.113Z,4.88
2022-10-30T22:46:51.304Z,7.15
2022-10-30T22:50:13.437Z,7.18
2022-10-30T22:53:37.608Z,10.38
2022-10-30T22:56:59.748Z,3.97
2022-10-30T23:00:26.830Z,4.45
2022-10-30T23:03:49.412Z,3.20
2022-10-30T23:07:11.640Z,2.83
2022-10-30T23:10:33.832Z,7.82
2022-10-30T23:13:56.391Z,2.30
2022-10-30T23:17:18.548Z,5.03
2022-10-30T23:20:42.024Z,1.85
2022-10-30T23:24:05.359Z,3.53
2022-10-30T23:27:33.036Z,4.15
2022-10-30T23:30:55.189Z,5.32
2022-10-30T23:34:17.580Z,2.72
2022-10-30T23:37:39.687Z,3.75
2022-10-30T23:41:01.799Z,3.92
2022-10-30T23:44:23.982Z,3.05
2022-10-30T23:47:46.118Z,1.20
2022-10-30T23:51:09.141Z,2.97
2022-10-30T23:54:31.257Z,2.88
2022-10-30T23:57:53.491Z,3.42
